Time;durP1;ratioP1;P1;durP2;ratioP2;P2;SDS_P1;SDS_P2;PMS_P1;PMS_P2;Temp;Humidity;BMP_temperature;BMP_pressure;BME280_temperature;BME280_humidity;BME280_pressure;Samples;Min_cycle;Max_cycle;Signal;HPM_P1;HPM_P2
2022/10/26 00:04:37;;;;;;;31.38;16.35;;;;;;;10.73;83.40;98094.50;10412773;28;20124;-54
2022/10/26 00:09:36;;;;;;;27.35;16.35;;;;;;;10.66;83.12;98087.56;10413083;28;20030;-55
2022/10/26 00:14:35;;;;;;;27.63;14.95;;;;;;;10.68;83.52;98088.44;10412599;28;20037;-55
2022/10/26 00:19:34;;;;;;;27.50;14.30;;;;;;;10.66;83.62;98087.56;10412672;28;20024;-55
2022/10/26 00:24:33;;;;;;;25.98;14.93;;;;;;;10.65;83.79;98097.06;10412666;28;20060;-55
2022/10/26 00:29:32;;;;;;;30.52;15.45;;;;;;;10.54;85.28;98104.84;10412662;28;20095;-55
2022/10/26 00:34:31;;;;;;;31.55;15.95;;;;;;;10.53;84.70;98105.69;10412113;28;20064;-54
2022/10/26 00:39:30;;;;;;;;;;;;;;;10.52;85.75;98109.16;10412692;28;20063;-55
2022/10/26 00:44:47;;;;;;;28.45;15.60;;;;;;;10.38;86.12;98106.47;10412103;28;19908;-55
2022/10/26 00:49:48;;;;;;;30.45;16.10;;;;;;;10.40;85.70;98109.94;10411781;28;20483;-55
2022/10/26 00:54:47;;;;;;;33.13;16.70;;;;;;;10.38;85.41;98121.19;10411526;28;20056;-54
2022/10/26 00:59:48;;;;;;;;;;;;;;;10.31;86.17;98116.81;10412429;28;20060;-54
2022/10/26 01:04:47;;;;;;;;;;;;;;;10.29;85.53;98118.53;10412237;28;19951;-55
2022/10/26 01:09:45;;;;;;;27.90;14.68;;;;;;;10.27;86.00;98117.66;10411761;28;19974;-55
2022/10/26 01:14:45;;;;;;;28.92;15.60;;;;;;;10.23;86.05;98115.88;10411991;28;20032;-54
2022/10/26 01:19:51;;;;;;;;;;;;;;;10.17;85.77;98122.78;10419962;28;20070;-54
2022/10/26 01:25:08;;;;;;;31.10;15.07;;;;;;;10.10;86.54;98128.78;10418983;28;19947;-55
2022/10/26 01:30:17;;;;;;;31.52;16.65;;;;;;;9.98;87.10;98123.53;10419045;28;20056;-55
2022/10/26 01:35:23;;;;;;;25.40;14.10;;;;;;;9.96;87.32;98123.50;10419096;28;20056;-54
2022/10/26 01:40:33;;;;;;;36.85;17.35;;;;;;;9.88;88.34;98127.75;10418922;28;20064;-54
2022/10/26 01:45:36;;;;;;;34.70;15.70;;;;;;;9.81;88.24;98127.69;10418174;28;20064;-55
2022/10/26 01:50:36;;;;;;;26.83;15.13;;;;;;;9.77;87.92;98126.81;10418191;28;20080;-55
2022/10/26 01:55:38;;;;;;;31.65;16.80;;;;;;;9.75;88.28;98129.38;10418202;28;20444;-54
2022/10/26 02:00:44;;;;;;;28.35;16.60;;;;;;;9.68;87.81;98122.41;10418303;28;20067;-54
2022/10/26 02:05:55;;;;;;;30.30;17.08;;;;;;;9.63;88.22;98123.22;10417911;28;20063;-54
2022/10/26 02:11:09;;;;;;;31.63;16.40;;;;;;;9.59;87.67;98111.97;10417437;28;20071;-54
2022/10/26 02:16:24;;;;;;;29.00;16.27;;;;;;;9.55;88.25;98121.41;10417072;28;20067;-54
2022/10/26 02:21:30;;;;;;;31.75;16.35;;;;;;;9.48;88.50;98103.22;10417198;28;20064;-55
2022/10/26 02:26:31;;;;;;;30.65;16.65;;;;;;;9.42;88.42;98108.34;10416350;28;20052;-54
2022/10/26 02:31:32;;;;;;;28.52;16.70;;;;;;;9.41;88.41;98116.97;10416691;28;20056;-55
2022/10/26 02:36:35;;;;;;;30.42;14.98;;;;;;;9.37;88.51;98136.78;10416683;28;20067;-54
2022/10/26 02:41:38;;;;;;;31.58;16.17;;;;;;;9.34;89.23;98141.94;10415948;28;20060;-54
2022/10/26 02:46:37;;;;;;;29.58;17.02;;;;;;;9.20;89.25;98126.22;10416196;28;20064;-54
2022/10/26 02:51:43;;;;;;;;;;;;;;;9.28;89.44;98153.13;10416105;28;20080;-53
2022/10/26 02:56:52;;;;;;;31.50;14.98;;;;;;;9.27;89.29;98156.53;10415766;28;20397;-54
2022/10/26 03:01:52;;;;;;;28.47;16.30;;;;;;;9.23;89.33;98154.78;10415212;28;20070;-54
2022/10/26 03:06:54;;;;;;;33.67;17.48;;;;;;;9.23;89.85;98149.59;10415281;28;20500;-55
2022/10/26 03:11:53;;;;;;;48.95;30.10;;;;;;;9.18;90.00;98145.19;10415032;28;20518;-54
2022/10/26 03:16:52;;;;;;;37.95;19.63;;;;;;;9.06;91.68;98159.75;10415137;28;20033;-54
2022/10/26 03:21:51;;;;;;;34.97;21.35;;;;;;;9.02;92.68;98170.03;10414643;28;20036;-54
2022/10/26 03:26:50;;;;;;;33.40;19.10;;;;;;;8.79;92.87;98173.22;10414439;28;20038;-55
2022/10/26 03:31:53;;;;;;;28.83;17.60;;;;;;;8.55;91.74;98178.06;10414720;28;20040;-55
2022/10/26 03:36:51;;;;;;;28.63;16.33;;;;;;;8.34;91.64;98176.94;10413645;28;20514;-54
2022/10/26 03:41:50;;;;;;;36.20;18.63;;;;;;;8.21;91.06;98183.63;10413414;28;20498;-55
2022/10/26 03:46:49;;;;;;;30.65;17.13;;;;;;;8.22;90.87;98174.16;10413661;28;20081;-54
2022/10/26 03:51:48;;;;;;;33.22;16.95;;;;;;;8.21;91.16;98180.19;10413148;28;20036;-55
2022/10/26 03:56:48;;;;;;;31.05;18.10;;;;;;;8.20;90.98;98181.91;10412999;28;20029;-54
2022/10/26 04:01:46;;;;;;;31.42;17.48;;;;;;;8.20;90.85;98176.72;10413624;28;20061;-55
2022/10/26 04:06:45;;;;;;;39.10;21.25;;;;;;;8.24;90.99;98180.22;10413758;28;20037;-54
2022/10/26 04:11:44;;;;;;;39.60;19.70;;;;;;;8.17;91.22;98175.78;10428801;28;20491;-54
2022/10/26 04:16:43;;;;;;;36.92;19.13;;;;;;;8.06;92.41;98173.03;10412357;28;20136;-54
2022/10/26 04:21:42;;;;;;;38.63;22.30;;;;;;;8.02;92.05;98177.31;10413074;28;20077;-55
2022/10/26 04:26:41;;;;;;;45.00;22.70;;;;;;;8.03;91.93;98180.75;10412638;28;20032;-54
2022/10/26 04:31:41;;;;;;;42.80;22.75;;;;;;;7.99;91.68;98176.38;10412342;28;20032;-54
2022/10/26 04:36:40;;;;;;;36.10;21.77;;;;;;;7.94;91.43;98173.72;10361343;28;20563;-55
2022/10/26 04:41:39;;;;;;;46.88;24.83;;;;;;;7.99;91.47;98190.19;10330631;28;20069;-54
2022/10/26 04:46:38;;;;;;;46.72;23.27;;;;;;;8.00;91.42;98185.88;10329126;28;20029;-55
2022/10/26 04:51:37;;;;;;;66.82;29.83;;;;;;;7.98;91.94;98183.25;10333110;28;20542;-54
2022/10/26 04:56:36;;;;;;;59.58;28.20;;;;;;;7.99;92.04;98187.59;10338299;28;20047;-54
2022/10/26 05:01:34;;;;;;;49.40;26.17;;;;;;;7.92;92.32;98190.03;10337575;28;20427;-55
2022/10/26 05:06:33;;;;;;;58.40;26.80;;;;;;;7.92;92.68;98203.84;10335423;28;20028;-55
2022/10/26 05:11:32;;;;;;;51.00;25.08;;;;;;;7.95;92.80;98203.91;10336848;28;20376;-54
2022/10/26 05:16:31;;;;;;;52.47;23.58;;;;;;;7.94;93.03;98209.03;10320694;28;20141;-54
2022/10/26 05:21:30;;;;;;;65.78;24.88;;;;;;;7.85;93.31;98212.34;10336246;28;20040;-54
2022/10/26 05:26:29;;;;;;;43.72;23.52;;;;;;;7.79;94.35;98220.84;10337145;28;20079;-54
2022/10/26 05:31:28;;;;;;;38.33;23.33;;;;;;;7.85;94.24;98225.28;10334838;28;20022;-54
2022/10/26 05:36:27;;;;;;;64.22;27.25;;;;;;;7.94;94.15;98227.97;10335580;28;20045;-54
2022/10/26 05:41:26;;;;;;;62.05;29.10;;;;;;;8.03;93.79;98228.13;10328756;28;20029;-54
2022/10/26 05:46:25;;;;;;;69.57;31.25;;;;;;;8.15;94.19;98224.00;10339642;28;20030;-54
2022/10/26 05:51:24;;;;;;;55.88;28.60;;;;;;;8.29;94.03;98231.16;10339257;28;20135;-54
2022/10/26 05:56:37;;;;;;;52.08;26.85;;;;;;;8.37;93.41;98226.09;10339427;28;20482;-54
2022/10/26 06:01:50;;;;;;;51.30;27.27;;;;;;;8.54;93.44;98246.19;10338744;28;20033;-54
2022/10/26 06:06:53;;;;;;;55.08;27.88;;;;;;;8.57;93.59;98248.81;10326282;28;20064;-53
2022/10/26 06:11:52;;;;;;;45.00;25.65;;;;;;;8.71;93.72;98260.22;10325881;28;20103;-54
2022/10/26 06:17:22;;;;;;;44.38;24.80;;;;;;;8.87;93.44;98263.91;10338519;28;20072;-54
2022/10/26 06:22:47;;;;;;;47.60;25.60;;;;;;;9.05;93.34;98263.28;10338549;28;20065;-54
2022/10/26 06:28:01;;;;;;;44.05;24.70;;;;;;;9.20;93.33;98273.81;10307433;28;20065;-54
2022/10/26 06:33:00;;;;;;;47.40;27.90;;;;;;;9.34;93.97;98274.91;10332669;28;20061;-54
2022/10/26 06:38:03;;;;;;;46.55;27.58;;;;;;;9.51;93.79;98263.88;10337911;28;20057;-53
2022/10/26 06:43:02;;;;;;;48.92;27.35;;;;;;;9.72;94.42;98274.50;10335112;28;20064;-54
2022/10/26 06:48:17;;;;;;;43.63;25.65;;;;;;;9.92;93.82;98274.69;10334013;28;20084;-54
2022/10/26 06:53:29;;;;;;;44.08;26.65;;;;;;;10.18;93.70;98277.50;10333050;28;20080;-56
2022/10/26 06:58:33;;;;;;;47.50;28.52;;;;;;;10.34;93.38;98286.31;10332978;28;20071;-56
2022/10/26 07:03:32;;;;;;;47.83;28.45;;;;;;;10.50;93.01;98282.13;10333231;28;20064;-54
2022/10/26 07:08:32;;;;;;;45.60;26.90;;;;;;;10.74;92.31;98286.59;10333011;28;20029;-55
2022/10/26 07:13:31;;;;;;;45.47;26.67;;;;;;;10.93;91.28;98277.25;10332101;28;20075;-55
2022/10/26 07:18:30;;;;;;;48.80;26.02;;;;;;;11.05;90.71;98273.84;10333064;28;20037;-55
2022/10/26 07:23:29;;;;;;;38.83;25.25;;;;;;;11.21;89.92;98267.88;10332487;28;20037;-55
2022/10/26 07:28:28;;;;;;;44.10;25.02;;;;;;;11.40;90.29;98274.00;10332272;28;20036;-55
2022/10/26 07:33:27;;;;;;;45.17;22.55;;;;;;;11.49;89.22;98273.19;10332340;28;20121;-55
2022/10/26 07:38:26;;;;;;;33.50;18.98;;;;;;;11.77;89.17;98275.88;10332150;28;20040;-55
2022/10/26 07:43:25;;;;;;;28.52;17.23;;;;;;;12.02;87.93;98269.84;10330178;28;20949;-55
2022/10/26 07:48:24;;;;;;;28.75;17.55;;;;;;;12.22;87.48;98276.81;10331621;28;20072;-55
2022/10/26 07:53:22;;;;;;;32.67;18.98;;;;;;;12.52;87.18;98270.78;10331554;28;20029;-55
2022/10/26 07:58:24;;;;;;;31.52;16.02;;;;;;;12.69;85.82;98263.81;10331360;28;20034;-55
2022/10/26 08:03:23;;;;;;;29.90;15.77;;;;;;;12.99;85.27;98262.00;10331031;28;20076;-55
2022/10/26 08:08:22;;;;;;;25.55;15.13;;;;;;;13.23;84.31;98268.03;10330761;28;20036;-55
2022/10/26 08:13:21;;;;;;;24.20;12.85;;;;;;;13.44;82.36;98262.72;10330928;28;20033;-55
2022/10/26 08:18:20;;;;;;;23.00;11.57;;;;;;;13.64;81.06;98251.38;10331006;28;20029;-55
2022/10/26 08:23:20;;;;;;;23.63;12.65;;;;;;;13.87;80.88;98259.09;10330105;28;20037;-55
2022/10/26 08:28:19;;;;;;;25.50;13.90;;;;;;;14.14;80.16;98253.66;10330432;28;20076;-55
2022/10/26 08:33:18;;;;;;;26.13;13.52;;;;;;;14.36;78.76;98250.91;10330305;28;20033;-56
2022/10/26 08:38:17;;;;;;;25.20;13.65;;;;;;;14.59;77.41;98250.69;10332207;28;20041;-55
2022/10/26 08:43:25;;;;;;;28.95;13.00;;;;;;;14.85;76.48;98244.38;10333122;28;20029;-55
2022/10/26 08:48:33;;;;;;;30.17;14.07;;;;;;;15.07;75.24;98243.28;10333818;28;20477;-55
2022/10/26 08:53:50;;;;;;;23.67;12.63;;;;;;;15.29;73.24;98243.88;10334912;28;20476;-55
2022/10/26 08:59:13;;;;;;;19.38;10.20;;;;;;;15.50;69.77;98247.13;10335194;28;20072;-55
2022/10/26 09:04:12;;;;;;;19.90;11.35;;;;;;;15.83;67.61;98248.44;10335204;28;20069;-56
2022/10/26 09:09:11;;;;;;;24.38;10.77;;;;;;;16.17;66.04;98240.09;10334874;28;20068;-55
2022/10/26 09:14:10;;;;;;;;;;;;;;;16.39;63.77;98245.84;10333825;28;20049;-56
2022/10/26 09:19:18;;;;;;;16.30;6.43;;;;;;;16.67;62.53;98241.00;10334999;28;19957;-54
2022/10/26 09:24:33;;;;;;;10.98;5.50;;;;;;;16.87;56.62;98241.53;10324768;28;20460;-54
2022/10/26 09:29:38;;;;;;;9.65;4.68;;;;;;;17.27;55.52;98227.66;10334708;28;20057;-54
2022/10/26 09:35:00;;;;;;;6.55;2.42;;;;;;;17.57;52.35;98227.91;10332103;28;20091;-54
2022/10/26 09:40:24;;;;;;;5.55;2.25;;;;;;;17.64;50.01;98219.00;10317760;28;20065;-55
2022/10/26 09:45:31;;;;;;;6.60;2.35;;;;;;;17.72;50.24;98219.69;10335370;28;20065;-54
2022/10/26 09:50:35;;;;;;;6.22;2.70;;;;;;;17.96;49.84;98217.41;10332709;28;20084;-54
2022/10/26 09:55:41;;;;;;;10.65;4.47;;;;;;;18.22;48.68;98213.31;10333475;28;20068;-55
2022/10/26 10:00:42;;;;;;;8.90;3.15;;;;;;;18.40;48.09;98212.88;10333804;28;20072;-55
2022/10/26 10:05:41;;;;;;;5.28;2.45;;;;;;;18.57;47.80;98207.16;10335527;28;20076;-56
2022/10/26 10:11:08;;;;;;;6.57;3.20;;;;;;;18.71;46.40;98199.81;10335478;28;20105;-55
2022/10/26 10:16:11;;;;;;;8.57;3.35;;;;;;;18.65;46.40;98196.47;10335530;28;20846;-54
2022/10/26 10:21:10;;;;;;;9.70;2.80;;;;;;;18.73;46.53;98178.75;10334946;28;20080;-54
2022/10/26 10:26:10;;;;;;;10.50;3.30;;;;;;;18.87;45.23;98189.75;10335175;28;20151;-54
2022/10/26 10:31:20;;;;;;;6.75;2.75;;;;;;;19.07;43.92;98188.34;10337222;28;20812;-55
2022/10/26 10:36:22;;;;;;;7.88;2.67;;;;;;;19.25;43.95;98177.28;10332081;28;20064;-55
2022/10/26 10:41:27;;;;;;;6.38;2.47;;;;;;;19.44;44.05;98167.94;10334162;28;20314;-55
2022/10/26 10:46:27;;;;;;;8.95;3.20;;;;;;;19.61;43.91;98158.69;10331653;28;20477;-55
2022/10/26 10:51:26;;;;;;;8.30;2.88;;;;;;;19.66;42.69;98156.78;10329884;28;20080;-55
2022/10/26 10:56:28;;;;;;;7.80;2.67;;;;;;;19.59;42.69;98157.88;10328266;28;20135;-55
2022/10/26 11:01:37;;;;;;;8.18;3.00;;;;;;;19.62;42.82;98153.38;10331714;28;20073;-58
2022/10/26 11:06:40;;;;;;;5.97;2.85;;;;;;;19.85;42.17;98147.38;10333062;28;20057;-55
2022/10/26 11:11:45;;;;;;;8.20;2.88;;;;;;;20.03;41.01;98150.34;10333176;28;20065;-55
2022/10/26 11:16:49;;;;;;;7.75;3.13;;;;;;;20.19;40.39;98151.56;10332741;28;20065;-54
2022/10/26 11:21:53;;;;;;;5.57;2.83;;;;;;;20.36;40.40;98139.59;10332813;28;20664;-55
2022/10/26 11:26:59;;;;;;;5.95;2.70;;;;;;;20.57;40.22;98143.28;10332680;28;20065;-54
2022/10/26 11:32:12;;;;;;;5.13;2.20;;;;;;;20.67;39.57;98132.34;10334302;28;20520;-54
2022/10/26 11:37:19;;;;;;;6.40;2.35;;;;;;;20.80;38.26;98137.19;10333440;28;20064;-54
2022/10/26 11:42:45;;;;;;;6.78;2.15;;;;;;;20.63;37.08;98129.84;10328092;28;20083;-54
2022/10/26 11:47:55;;;;;;;5.05;1.95;;;;;;;20.66;36.42;98122.72;10335979;28;20512;-54
2022/10/26 11:53:26;;;;;;;3.30;1.70;;;;;;;20.83;35.55;98123.88;10335655;28;20068;-54
2022/10/26 11:58:27;;;;;;;3.53;1.70;;;;;;;20.82;33.38;98125.66;10327094;28;20092;-54
2022/10/26 12:03:31;;;;;;;4.47;1.88;;;;;;;21.12;33.65;98114.88;10335617;28;20113;-54
2022/10/26 12:09:05;;;;;;;9.57;5.40;;;;;;;21.29;33.03;98109.00;10335879;28;20056;-55
2022/10/26 12:14:23;;;;;;;5.93;2.55;;;;;;;21.34;32.47;98105.25;10336027;28;20096;-54
2022/10/26 12:19:59;;;;;;;4.63;2.13;;;;;;;21.58;33.34;98112.28;10335872;28;20449;-55
2022/10/26 12:25:07;;;;;;;2.42;1.50;;;;;;;21.35;33.03;98108.75;10333054;28;20081;-55
2022/10/26 12:30:18;;;;;;;2.22;1.60;;;;;;;21.50;33.18;98102.88;10335242;28;20061;-55
2022/10/26 12:35:37;;;;;;;4.18;1.30;;;;;;;21.61;33.04;98105.06;10332876;28;20065;-54
2022/10/26 12:40:41;;;;;;;1.90;1.50;;;;;;;21.60;32.97;98102.50;10333876;28;20068;-54
2022/10/26 12:45:42;;;;;;;6.53;1.65;;;;;;;21.43;33.32;98101.41;10328899;28;20073;-55
2022/10/26 12:50:41;;;;;;;4.15;1.33;;;;;;;21.25;32.72;98116.16;10328130;28;20096;-55
2022/10/26 12:55:40;;;;;;;3.75;1.42;;;;;;;21.28;32.53;98107.25;10330450;28;20030;-53
2022/10/26 13:00:50;;;;;;;3.88;1.25;;;;;;;21.37;32.52;98104.28;10329988;28;20025;-55
2022/10/26 13:06:08;;;;;;;4.93;1.40;;;;;;;21.41;32.54;98108.53;10330041;28;20091;-54
2022/10/26 13:11:31;;;;;;;6.80;2.17;;;;;;;21.43;31.94;98106.69;10331972;28;20531;-54
2022/10/26 13:16:30;;;;;;;4.10;1.70;;;;;;;21.40;31.15;98111.22;10339376;28;20072;-54
2022/10/26 13:21:30;;;;;;;3.15;1.10;;;;;;;21.66;30.14;98108.38;10339172;28;20069;-54
2022/10/26 13:26:30;;;;;;;1.83;1.35;;;;;;;21.62;30.28;98106.81;10339033;28;20508;-53
2022/10/26 13:31:32;;;;;;;3.95;1.30;;;;;;;21.44;30.32;98113.66;10339444;28;20056;-54
2022/10/26 13:36:42;;;;;;;6.28;1.30;;;;;;;21.50;30.51;98108.16;10337152;28;20056;-53
2022/10/26 13:41:44;;;;;;;3.50;1.30;;;;;;;21.69;30.40;98110.06;10337175;28;20132;-54
2022/10/26 13:46:45;;;;;;;2.30;1.08;;;;;;;21.59;30.18;98114.84;10337482;28;20687;-54
2022/10/26 13:51:48;;;;;;;3.17;1.13;;;;;;;21.41;30.05;98119.06;10337982;28;20076;-53
2022/10/26 13:57:00;;;;;;;4.45;1.38;;;;;;;21.33;29.90;98126.41;10333644;28;20322;-54
2022/10/26 14:02:06;;;;;;;5.45;1.30;;;;;;;21.47;30.24;98129.38;10333837;28;20582;-53
2022/10/26 14:07:05;;;;;;;3.08;1.30;;;;;;;21.46;30.30;98132.09;10333635;28;20064;-55
2022/10/26 14:12:04;;;;;;;4.43;1.77;;;;;;;21.32;30.37;98124.72;10332150;28;20033;-54
2022/10/26 14:17:04;;;;;;;4.68;1.10;;;;;;;21.30;30.31;98143.25;10334092;28;20073;-55
2022/10/26 14:22:04;;;;;;;3.20;1.48;;;;;;;21.14;30.85;98137.63;10333000;28;20068;-54
2022/10/26 14:27:02;;;;;;;2.65;1.30;;;;;;;21.04;31.05;98145.97;10333390;28;20487;-54
2022/10/26 14:32:21;;;;;;;4.47;1.80;;;;;;;20.93;31.64;98149.84;10332383;28;20396;-54
2022/10/26 14:37:26;;;;;;;3.45;1.60;;;;;;;20.77;32.15;98163.66;10329792;28;20080;-55
2022/10/26 14:42:38;;;;;;;2.70;1.35;;;;;;;20.64;32.46;98171.16;10329163;28;20333;-54
2022/10/26 14:47:37;;;;;;;5.53;1.33;;;;;;;20.51;32.92;98178.63;10327807;28;20080;-55
2022/10/26 14:52:37;;;;;;;4.57;1.90;;;;;;;20.36;33.31;98176.50;10332666;28;20074;-54
2022/10/26 14:57:38;;;;;;;17.63;2.90;;;;;;;20.25;33.69;98184.75;10333342;28;20068;-54
2022/10/26 15:02:38;;;;;;;13.50;6.22;;;;;;;20.14;33.86;98190.38;10332397;28;20065;-54
2022/10/26 15:07:39;;;;;;;10.80;3.97;;;;;;;19.91;34.45;98185.84;10333092;28;20092;-54
2022/10/26 15:12:38;;;;;;;6.07;3.63;;;;;;;19.81;34.69;98192.28;10331169;28;20073;-54
2022/10/26 15:17:48;;;;;;;6.05;2.40;;;;;;;19.68;35.23;98207.63;10332409;28;20037;-54
2022/10/26 15:22:58;;;;;;;4.13;2.25;;;;;;;19.54;35.36;98218.53;10331383;28;20500;-54
2022/10/26 15:28:19;;;;;;;15.32;3.03;;;;;;;19.41;35.77;98230.31;10328245;28;20461;-54
2022/10/26 15:33:20;;;;;;;44.17;4.03;;;;;;;19.21;36.40;98230.91;10328111;28;20079;-54
2022/10/26 15:38:19;;;;;;;19.45;3.53;;;;;;;18.97;37.10;98238.59;10327936;28;20114;-54
2022/10/26 15:43:18;;;;;;;17.38;4.55;;;;;;;18.72;38.02;98254.13;10331638;28;20037;-55
2022/10/26 15:48:23;;;;;;;12.68;5.28;;;;;;;18.40;38.84;98263.66;10330859;28;20045;-55
2022/10/26 15:53:26;;;;;;;12.95;4.80;;;;;;;18.08;39.17;98267.06;10331162;28;20069;-54
2022/10/26 15:58:30;;;;;;;19.05;8.23;;;;;;;17.84;40.40;98273.69;10331598;28;20076;-54
2022/10/26 16:03:29;;;;;;;24.90;11.13;;;;;;;17.45;41.97;98288.50;10330488;28;20079;-54
2022/10/26 16:08:30;;;;;;;26.80;10.13;;;;;;;17.14;42.85;98292.59;10330984;28;20026;-54
2022/10/26 16:13:29;;;;;;;32.05;14.65;;;;;;;16.68;43.96;98295.16;10330440;28;20072;-54
2022/10/26 16:18:28;;;;;;;24.42;10.90;;;;;;;16.39;44.29;98296.47;10330317;28;20545;-54
2022/10/26 16:23:27;;;;;;;;;;;;;;;16.06;44.77;98290.84;10330725;28;20538;-54
2022/10/26 16:28:26;;;;;;;17.85;8.20;;;;;;;15.97;45.12;98317.16;10330187;28;19964;-54
2022/10/26 16:33:24;;;;;;;;;;;;;;;15.79;45.54;98323.50;10330538;28;20107;-54
2022/10/26 16:38:25;;;;;;;14.95;6.38;;;;;;;15.58;46.05;98324.63;10330341;28;20008;-54
2022/10/26 16:43:24;;;;;;;12.52;5.50;;;;;;;15.38;46.13;98332.69;10332526;28;20563;-54
2022/10/26 16:48:23;;;;;;;;;;;;;;;15.21;46.31;98332.88;10344328;28;20431;-54
2022/10/26 16:53:22;;;;;;;15.98;5.85;;;;;;;15.06;46.81;98346.09;10346670;28;19913;-54
2022/10/26 16:58:21;;;;;;;15.90;6.07;;;;;;;14.91;47.46;98356.69;10346222;28;20076;-55
2022/10/26 17:03:20;;;;;;;15.77;5.95;;;;;;;14.75;47.89;98354.19;10346156;28;20117;-54
2022/10/26 17:08:19;;;;;;;13.70;5.50;;;;;;;14.58;48.26;98358.66;10346590;28;20044;-54
2022/10/26 17:13:18;;;;;;;16.83;5.60;;;;;;;14.44;49.06;98370.94;10346089;28;20025;-57
2022/10/26 17:18:17;;;;;;;11.10;4.80;;;;;;;14.21;49.63;98385.00;10345524;28;20073;-54
2022/10/26 17:23:17;;;;;;;10.35;4.82;;;;;;;14.10;49.85;98389.41;10346243;28;20109;-54
2022/10/26 17:28:16;;;;;;;9.15;4.40;;;;;;;13.89;50.16;98385.16;10346134;28;20496;-54
2022/10/26 17:33:15;;;;;;;11.48;6.00;;;;;;;13.81;50.71;98395.63;10345579;28;20500;-54
2022/10/26 17:38:14;;;;;;;11.90;6.40;;;;;;;13.74;50.99;98401.72;10346085;28;20042;-54
2022/10/26 17:43:12;;;;;;;14.75;8.23;;;;;;;13.62;51.18;98399.16;10343340;28;20391;-55
2022/10/26 17:48:11;;;;;;;12.45;7.18;;;;;;;13.52;51.37;98409.59;10341714;28;20053;-54
2022/10/26 17:53:10;;;;;;;11.82;6.75;;;;;;;13.39;51.67;98407.88;10342091;28;20040;-54
2022/10/26 17:58:11;;;;;;;22.52;11.02;;;;;;;13.34;52.20;98414.84;10337824;28;20463;-54
2022/10/26 18:03:10;;;;;;;17.00;7.68;;;;;;;13.21;52.91;98411.38;10333741;28;20064;-54
2022/10/26 18:08:08;;;;;;;12.60;7.55;;;;;;;13.07;53.05;98410.50;10335696;28;20032;-54
2022/10/26 18:13:07;;;;;;;15.73;9.10;;;;;;;12.96;53.65;98415.75;10334808;28;20026;-54
2022/10/26 18:18:06;;;;;;;14.60;8.93;;;;;;;12.78;54.36;98423.53;10334853;28;20560;-54
2022/10/26 18:23:06;;;;;;;14.30;9.63;;;;;;;12.62;55.18;98423.50;10334994;28;20077;-54
2022/10/26 18:28:04;;;;;;;15.90;9.65;;;;;;;12.47;55.23;98429.56;10334176;28;20076;-54
2022/10/26 18:33:03;;;;;;;15.55;10.02;;;;;;;12.36;55.87;98431.25;10334185;28;20121;-54
2022/10/26 18:38:02;;;;;;;18.58;12.48;;;;;;;12.25;57.47;98443.34;10307846;28;20057;-54
2022/10/26 18:43:01;;;;;;;25.08;12.85;;;;;;;12.21;57.00;98446.81;10292886;28;20053;-55
2022/10/26 18:48:00;;;;;;;25.30;15.18;;;;;;;12.13;57.51;98453.72;10305215;28;20057;-53
2022/10/26 18:52:59;;;;;;;24.80;15.73;;;;;;;11.98;57.88;98447.59;10333609;28;20048;-54
2022/10/26 18:57:58;;;;;;;23.40;12.15;;;;;;;11.91;58.61;98452.75;10332837;28;20369;-54
2022/10/26 19:02:57;;;;;;;34.17;16.33;;;;;;;11.77;59.27;98455.28;10333129;28;20044;-54
2022/10/26 19:07:56;;;;;;;32.38;18.52;;;;;;;11.64;59.32;98464.72;10330622;28;20516;-54
2022/10/26 19:12:55;;;;;;;25.42;15.05;;;;;;;11.59;59.43;98471.63;10332111;28;20216;-54
2022/10/26 19:17:55;;;;;;;38.70;16.92;;;;;;;11.49;60.12;98490.63;10332417;28;20064;-54
2022/10/26 19:22:54;;;;;;;27.58;14.50;;;;;;;11.42;60.62;98484.53;10332109;28;20081;-54
2022/10/26 19:27:54;;;;;;;26.80;14.63;;;;;;;11.32;62.03;98499.19;10331948;28;20434;-54
2022/10/26 19:32:53;;;;;;;22.98;11.77;;;;;;;11.25;61.72;98502.59;10331728;28;20076;-54
2022/10/26 19:37:52;;;;;;;19.67;11.23;;;;;;;11.18;62.92;98506.00;10331730;28;20108;-55
2022/10/26 19:42:52;;;;;;;17.58;11.98;;;;;;;11.09;62.67;98513.69;10333094;28;20033;-54
2022/10/26 19:47:51;;;;;;;23.35;12.98;;;;;;;11.00;63.29;98507.53;10334603;28;20103;-54
2022/10/26 19:52:50;;;;;;;22.48;13.18;;;;;;;10.93;63.95;98510.94;10334064;28;20401;-54
2022/10/26 19:57:49;;;;;;;26.30;13.95;;;;;;;10.90;64.13;98510.06;10334864;28;20511;-55
2022/10/26 20:02:48;;;;;;;24.50;14.30;;;;;;;10.82;64.66;98512.53;10333940;28;20108;-54
2022/10/26 20:07:47;;;;;;;41.42;25.20;;;;;;;10.71;65.85;98520.22;10334170;28;20037;-53
2022/10/26 20:12:46;;;;;;;32.60;19.70;;;;;;;10.58;65.91;98528.72;10331496;28;20045;-54
2022/10/26 20:17:44;;;;;;;144.40;64.50;;;;;;;10.45;66.66;98538.09;10333459;28;20033;-54
2022/10/26 20:22:43;;;;;;;86.75;42.83;;;;;;;10.38;67.25;98536.28;10333088;28;20032;-53
2022/10/26 20:27:46;;;;;;;66.75;35.65;;;;;;;10.29;67.47;98544.81;10333839;28;20503;-53
2022/10/26 20:32:45;;;;;;;50.83;28.15;;;;;;;10.31;67.74;98555.22;10333164;28;20061;-53
2022/10/26 20:37:45;;;;;;;35.47;20.17;;;;;;;10.22;68.73;98560.28;10334494;28;20033;-56
2022/10/26 20:42:44;;;;;;;28.35;13.73;;;;;;;10.11;68.93;98568.78;10332758;28;20069;-53
2022/10/26 20:47:43;;;;;;;21.02;11.68;;;;;;;10.03;68.77;98567.81;10331290;28;20084;-54
2022/10/26 20:52:42;;;;;;;;;;;;;;;9.95;69.59;98572.00;10331698;28;20109;-54
2022/10/26 20:57:51;;;;;;;21.98;11.38;;;;;;;9.84;69.61;98570.97;10331103;28;19945;-53
2022/10/26 21:02:50;;;;;;;21.98;11.55;;;;;;;9.77;70.04;98573.47;10330970;28;20069;-54
2022/10/26 21:07:49;;;;;;;23.65;13.25;;;;;;;9.57;71.73;98577.47;10331004;28;20029;-54
2022/10/26 21:12:48;;;;;;;30.00;17.80;;;;;;;9.42;71.86;98574.63;10330850;28;20021;-54
2022/10/26 21:17:47;;;;;;;29.23;16.42;;;;;;;9.30;72.61;98583.94;10330439;28;20025;-54
2022/10/26 21:22:46;;;;;;;20.55;11.68;;;;;;;9.13;73.34;98578.41;10330664;28;20080;-54
2022/10/26 21:27:45;;;;;;;23.08;12.15;;;;;;;9.09;73.25;98584.41;10330591;28;20065;-54
2022/10/26 21:32:44;;;;;;;19.25;11.68;;;;;;;9.04;72.92;98582.56;10332550;28;20037;-54
2022/10/26 21:37:43;;;;;;;20.20;11.60;;;;;;;8.99;72.70;98573.84;10337911;28;20100;-54
2022/10/26 21:42:48;;;;;;;20.90;11.50;;;;;;;8.95;73.23;98565.16;10337693;28;20516;-54
2022/10/26 21:47:53;;;;;;;25.52;13.20;;;;;;;8.97;73.42;98578.97;10337632;28;20543;-54
2022/10/26 21:52:52;;;;;;;24.35;15.23;;;;;;;8.90;73.80;98571.94;10337445;28;20061;-54
2022/10/26 21:57:52;;;;;;;36.60;19.60;;;;;;;8.87;73.63;98583.09;10337282;28;20060;-54
2022/10/26 22:02:51;;;;;;;31.48;19.38;;;;;;;8.81;74.20;98583.00;10335511;28;20069;-54
2022/10/26 22:07:51;;;;;;;37.10;21.10;;;;;;;8.78;74.10;98579.47;10333197;28;20112;-53
2022/10/26 22:12:50;;;;;;;32.03;19.35;;;;;;;8.75;74.47;98574.25;10334844;28;20069;-54
2022/10/26 22:17:49;;;;;;;34.45;21.60;;;;;;;8.73;74.62;98571.63;10334499;28;20464;-54
2022/10/26 22:22:48;;;;;;;29.55;19.42;;;;;;;8.67;74.84;98562.03;10335850;28;20760;-54
2022/10/26 22:27:47;;;;;;;27.02;16.90;;;;;;;8.65;74.86;98568.03;10334882;28;20116;-54
2022/10/26 22:32:46;;;;;;;20.63;14.05;;;;;;;8.60;75.29;98570.53;10336076;28;20664;-54
2022/10/26 22:37:45;;;;;;;24.38;14.57;;;;;;;8.59;75.64;98573.94;10335785;28;20429;-54
2022/10/26 22:42:44;;;;;;;21.23;11.73;;;;;;;8.59;75.82;98573.94;10337178;28;20026;-54
2022/10/26 22:47:43;;;;;;;26.48;12.82;;;;;;;8.59;76.35;98567.91;10338786;28;20497;-54
2022/10/26 22:52:42;;;;;;;21.52;12.30;;;;;;;8.66;76.08;98574.94;10338831;28;20069;-54
2022/10/26 22:57:41;;;;;;;21.98;11.85;;;;;;;8.67;76.28;98576.69;10338425;28;20029;-54
2022/10/26 23:02:40;;;;;;;23.05;13.32;;;;;;;8.62;76.36;98557.59;10338034;28;20117;-54
2022/10/26 23:07:39;;;;;;;23.05;12.90;;;;;;;8.77;76.25;98576.03;10338260;28;20040;-54
2022/10/26 23:12:38;;;;;;;20.52;12.25;;;;;;;8.84;76.47;98579.59;10337916;28;20116;-54
2022/10/26 23:17:37;;;;;;;22.15;10.80;;;;;;;8.84;76.45;98590.81;10337701;28;20035;-56